.
WxDataArchive / Data Records for 2006-01-23
2006-01-22 January 2006 2006-01-24

Data Records for Monday, 23 January 2006

Time	Temp	Chill	HIndex	Humid	Dewpt	 Wind 	HiWind	WindDir	Rain 	Barom 
-----	----	-----	------	-----	-----	------	------	-------	-----	----- 
00:00	31.9	31.9	31.9	85	27.9	0	1	68	0.00	30.202 
00:05	31.9	31.9	31.9	85	27.9	0	1	68	0.00	30.202 
00:10	31.9	31.9	31.9	85	27.9	0	1	68	0.00	30.202 
00:15	31.8	31.8	31.8	85	27.8	0	1	68	0.00	30.186 
00:20	31.8	31.8	31.8	86	28.1	0	1	68	0.00	30.186 
00:25	31.6	31.6	31.6	86	27.9	0	2	68	0.00	30.186 
00:30	31.5	31.5	31.5	86	27.8	0	1	68	0.00	30.169 
00:35	31.5	31.5	31.5	86	27.8	0	2	68	0.00	30.169 
00:40	31.3	31.3	31.3	86	27.6	0	1	68	0.00	30.169 
00:45	31.2	31.2	31.2	86	27.5	0	1	68	0.00	30.156 
00:50	31.2	31.2	31.2	87	27.8	0	1	68	0.00	30.156 
00:55	31.2	31.2	31.2	87	27.8	0	1	68	0.00	30.156 
01:00	31.0	31.0	31.0	87	27.6	0	1	68	0.00	30.156 
01:05	31.0	31.0	31.0	87	27.6	0	1	68	0.00	30.156 
01:10	31.0	31.0	31.0	87	27.6	0	0	---	0.00	30.156 
01:15	31.0	31.0	31.0	87	27.6	0	1	68	0.00	30.166 
01:20	31.0	31.0	31.0	87	27.6	0	1	68	0.00	30.166 
01:25	31.0	31.0	31.0	87	27.6	0	1	68	0.00	30.166 
01:30	31.0	31.0	31.0	87	27.6	0	1	68	0.00	30.156 
01:35	30.9	30.9	30.9	87	27.5	0	0	---	0.00	30.156 
01:40	30.9	30.9	30.9	87	27.5	0	1	68	0.00	30.156 
01:45	30.9	30.9	30.9	87	27.5	0	1	68	0.00	30.152 
01:50	30.7	30.7	30.7	87	27.3	0	1	68	0.00	30.152 
01:55	30.7	30.7	30.7	87	27.3	0	1	68	0.00	30.152 
02:00	30.7	30.7	30.7	87	27.3	0	1	68	0.00	30.155 
02:05	30.7	30.7	30.7	87	27.3	0	1	68	0.00	30.155 
02:10	30.7	30.7	30.7	87	27.3	0	1	68	0.00	30.155 
02:15	30.6	30.6	30.6	87	27.2	0	1	68	0.00	30.154 
02:20	30.6	30.6	30.6	87	27.2	0	1	68	0.00	30.154 
02:25	30.6	30.6	30.6	87	27.2	0	1	68	0.00	30.154 
02:30	30.4	30.4	30.4	87	27.0	0	1	68	0.00	30.159 
02:35	30.4	30.4	30.4	87	27.0	0	0	---	0.00	30.159 
02:40	30.3	30.3	30.3	87	26.9	0	0	---	0.00	30.159 
02:45	30.1	30.1	30.1	87	26.7	0	1	68	0.00	30.155 
02:50	30.1	30.1	30.1	87	26.7	0	0	---	0.00	30.155 
02:55	30.0	30.0	30.0	87	26.6	0	1	68	0.00	30.155 
03:00	29.7	29.7	29.7	87	26.3	0	0	---	0.00	30.138 
03:05	29.5	29.5	29.5	87	26.1	0	0	---	0.00	30.138 
03:10	29.4	29.4	29.4	87	26.0	0	0	---	0.00	30.138 
03:15	29.3	29.3	29.3	88	26.2	0	0	---	0.00	30.135 
03:20	29.0	29.0	29.0	88	25.9	0	0	---	0.00	30.135 
03:25	28.8	28.8	28.8	88	25.7	0	0	---	0.00	30.135 
03:30	28.8	28.8	28.8	89	26.0	0	0	---	0.00	30.137 
03:35	28.7	28.7	28.7	89	25.9	0	0	---	0.00	30.137 
03:40	28.7	28.7	28.7	89	25.9	0	0	---	0.00	30.137 
03:45	28.5	28.5	28.5	89	25.7	0	0	---	0.00	30.135 
03:50	28.5	28.5	28.5	89	25.7	0	0	---	0.00	30.135 
03:55	28.4	28.4	28.4	90	25.8	0	0	---	0.00	30.135 
04:00	28.4	28.4	28.4	90	25.8	0	0	---	0.00	30.146 
04:05	28.4	28.4	28.4	90	25.8	0	0	---	0.00	30.146 
04:10	28.5	28.5	28.5	90	25.9	0	1	68	0.00	30.146 
04:15	28.5	28.5	28.5	90	25.9	0	1	68	0.00	30.139 
04:20	28.5	28.5	28.5	90	25.9	0	1	68	0.00	30.139 
04:25	28.7	28.7	28.7	90	26.1	0	2	45	0.00	30.139 
04:30	28.7	28.7	28.7	90	26.1	0	1	45	0.00	30.127 
04:35	28.7	28.7	28.7	90	26.1	0	1	45	0.00	30.127 
04:40	28.7	28.7	28.7	89	25.9	0	2	45	0.00	30.127 
04:45	28.7	28.7	28.7	89	25.9	0	2	0	0.00	30.128 
04:50	28.8	28.8	28.8	89	26.0	0	2	0	0.00	30.128 
04:55	28.7	28.7	28.7	88	25.6	0	2	338	0.00	30.128 
05:00	28.7	28.7	28.7	88	25.6	0	1	315	0.00	30.122 
05:05	28.7	28.7	28.7	88	25.6	0	1	315	0.00	30.122 
05:10	28.7	28.7	28.7	88	25.6	0	1	315	0.00	30.122 
05:15	28.5	28.5	28.5	88	25.4	0	1	315	0.00	30.135 
05:20	28.5	28.5	28.5	88	25.4	0	1	315	0.00	30.135 
05:25	28.4	28.4	28.4	88	25.3	0	1	315	0.00	30.135 
05:30	28.4	28.4	28.4	88	25.3	0	1	315	0.00	30.131 
05:35	28.4	28.4	28.4	88	25.3	0	2	315	0.00	30.131 
05:40	28.2	28.2	28.2	88	25.1	0	2	315	0.00	30.131 
05:45	28.2	28.2	28.2	88	25.1	0	2	315	0.00	30.125 
05:50	28.2	28.2	28.2	88	25.1	0	1	315	0.00	30.125 
05:55	28.1	28.1	28.1	88	25.0	0	1	315	0.00	30.125 
06:00	28.1	28.1	28.1	87	24.7	0	1	315	0.00	30.120 
06:05	28.1	28.1	28.1	87	24.7	0	1	315	0.00	30.120 
06:10	28.1	28.1	28.1	87	24.7	0	2	315	0.00	30.120 
06:15	28.1	28.1	28.1	86	24.5	0	2	315	0.00	30.127 
06:20	28.1	28.1	28.1	86	24.5	0	1	315	0.00	30.127 
06:25	27.9	27.9	27.9	86	24.3	0	1	315	0.00	30.127 
06:30	27.9	27.9	27.9	86	24.3	0	0	---	0.00	30.135 
06:35	27.9	27.9	27.9	86	24.3	0	0	---	0.00	30.135 
06:40	27.8	27.8	27.8	86	24.2	0	0	---	0.00	30.135 
06:45	27.8	27.8	27.8	86	24.2	0	1	315	0.00	30.141 
06:50	27.6	27.6	27.6	86	24.0	0	0	---	0.00	30.141 
06:55	27.6	27.6	27.6	86	24.0	0	1	315	0.00	30.141 
07:00	27.5	27.5	27.5	85	23.6	0	0	---	0.00	30.139 
07:05	27.3	27.3	27.3	85	23.4	0	0	---	0.00	30.139 
07:10	27.3	27.3	27.3	85	23.4	0	1	315	0.00	30.139 
07:15	27.2	27.2	27.2	85	23.3	0	1	315	0.00	30.136 
07:20	27.0	27.0	27.0	85	23.1	0	0	---	0.00	30.136 
07:25	27.0	27.0	27.0	85	23.1	0	1	315	0.00	30.136 
07:30	27.0	27.0	27.0	85	23.1	0	2	315	0.00	30.138 
07:35	27.0	27.0	27.0	85	23.1	0	1	315	0.00	30.138 
07:40	27.2	27.2	27.2	84	23.0	0	2	338	0.00	30.138 
07:45	27.2	27.2	27.2	84	23.0	0	1	338	0.00	30.137 
07:50	27.3	27.3	27.3	83	22.8	0	1	338	0.00	30.137 
07:55	27.3	27.3	27.3	83	22.8	0	2	338	0.00	30.137 
08:00	27.3	27.3	27.3	83	22.8	0	2	338	0.00	30.141 
08:05	27.3	27.3	27.3	83	22.8	0	3	292	0.00	30.141 
08:10	27.3	27.3	27.3	83	22.8	0	3	270	0.00	30.141 
08:15	27.3	27.3	27.3	83	22.8	0	1	270	0.00	30.140 
08:20	27.3	27.3	27.3	84	23.1	0	2	270	0.00	30.140 
08:25	27.5	27.5	27.5	84	23.3	1	3	248	0.00	30.140 
08:30	27.6	27.6	27.6	84	23.4	0	3	292	0.00	30.142 
08:35	27.9	27.9	27.9	85	24.0	1	3	270	0.00	30.142 
08:40	28.2	28.2	28.2	86	24.6	1	2	315	0.00	30.142 
08:45	28.5	28.5	28.5	86	24.9	1	2	270	0.00	30.141 
08:50	28.8	28.8	28.8	86	25.2	0	2	315	0.00	30.141 
08:55	29.0	29.0	29.0	87	25.6	1	4	338	0.00	30.141 
09:00	29.0	29.0	29.0	87	25.6	1	5	292	0.00	30.141 
09:05	29.0	29.0	29.0	87	25.6	1	3	315	0.00	30.141 
09:10	29.0	29.0	29.0	87	25.6	1	4	315	0.00	30.141 
09:15	29.1	29.1	29.1	88	26.0	2	5	248	0.00	30.146 
09:20	29.1	29.1	29.1	88	26.0	1	5	292	0.00	30.146 
09:25	29.3	29.3	29.3	88	26.2	1	5	270	0.00	30.146 
09:30	29.3	29.3	29.3	88	26.2	1	5	338	0.00	30.156 
09:35	29.4	29.4	29.4	88	26.3	1	6	292	0.00	30.156 
09:40	29.5	29.5	29.5	88	26.4	1	3	292	0.00	30.156 
09:45	29.5	29.5	29.5	87	26.1	1	4	315	0.00	30.153 
09:50	29.7	29.7	29.7	87	26.3	1	3	315	0.00	30.153 
09:55	29.7	29.7	29.7	87	26.3	1	3	292	0.00	30.153 
10:00	29.8	29.8	29.8	86	26.1	1	3	315	0.00	30.157 
10:05	29.8	29.8	29.8	86	26.1	1	2	315	0.00	30.157 
10:10	29.8	29.8	29.8	86	26.1	1	4	315	0.00	30.157 
10:15	30.0	30.0	30.0	85	26.0	1	5	292	0.00	30.163 
10:20	30.3	30.3	30.3	85	26.3	1	4	292	0.00	30.163 
10:25	30.4	30.4	30.4	85	26.4	1	3	292	0.00	30.163 
10:30	30.6	30.6	30.6	84	26.4	1	4	315	0.00	30.168 
10:35	30.9	30.9	30.9	84	26.6	1	3	270	0.00	30.168 
10:40	31.0	31.0	31.0	84	26.7	1	4	270	0.00	30.168 
10:45	31.2	31.2	31.2	84	26.9	1	4	270	0.00	30.168 
10:50	31.2	31.2	31.2	82	26.4	2	5	315	0.00	30.168 
10:55	31.5	31.5	31.5	83	26.9	1	4	0	0.00	30.168 
11:00	31.6	31.6	31.6	82	26.7	1	4	292	0.00	30.171 
11:05	31.6	31.6	31.6	81	26.5	1	4	270	0.00	30.171 
11:10	31.9	31.9	31.9	81	26.7	2	3	292	0.00	30.171 
11:15	32.1	32.1	32.1	81	26.9	1	3	292	0.00	30.171 
11:20	32.2	32.2	32.2	81	27.0	1	5	270	0.00	30.171 
11:25	32.8	32.8	32.8	81	27.6	2	4	292	0.00	30.171 
11:30	33.2	33.2	33.2	79	27.4	2	4	270	0.00	30.170 
11:35	33.5	33.5	33.5	78	27.4	2	3	270	0.00	30.170 
11:40	33.7	33.7	33.7	76	27.0	2	4	270	0.00	30.170 
11:45	33.2	33.2	33.2	76	26.5	2	4	338	0.00	30.165 
11:50	33.1	33.1	33.1	78	27.0	1	4	270	0.00	30.165 
11:55	33.4	33.4	33.4	78	27.3	1	3	270	0.00	30.165 
12:00	33.5	33.5	33.5	77	27.1	1	3	270	0.00	30.154 
12:05	34.0	34.0	34.0	79	28.2	2	3	270	0.00	30.154 
12:10	34.1	34.1	34.1	76	27.3	1	3	270	0.00	30.154 
12:15	34.7	34.7	34.7	74	27.3	1	4	338	0.00	30.148 
12:20	35.0	35.0	35.0	75	27.9	1	3	270	0.00	30.148 
12:25	35.0	35.0	35.0	73	27.2	1	4	292	0.00	30.148 
12:30	35.2	35.2	35.2	74	27.8	1	4	338	0.00	30.138 
12:35	35.6	35.6	35.6	74	28.1	2	7	315	0.00	30.138 
12:40	35.8	35.8	35.8	74	28.3	1	4	270	0.00	30.138 
12:45	35.9	35.9	35.9	72	27.8	2	6	248	0.00	30.135 
12:50	36.0	36.0	36.0	71	27.5	2	4	270	0.00	30.135 
12:55	36.3	36.3	36.3	70	27.5	3	6	292	0.00	30.135 
13:00	36.5	36.5	36.5	70	27.7	2	5	270	0.00	30.129 
13:05	36.8	36.8	36.8	72	28.6	2	6	248	0.00	30.129 
13:10	37.2	37.2	37.2	71	28.7	2	4	248	0.00	30.129 
13:15	37.2	37.2	37.2	71	28.7	2	6	248	0.00	30.118 
13:20	37.3	37.3	37.3	70	28.4	2	5	315	0.00	30.118 
13:25	37.5	37.5	37.5	71	29.0	2	4	248	0.00	30.118 
13:30	37.6	37.6	37.6	67	27.7	2	5	270	0.00	30.112 
13:35	37.6	37.6	37.6	65	26.9	2	6	270	0.00	30.112 
13:40	37.5	37.5	37.5	70	28.6	2	6	248	0.00	30.112 
13:45	37.8	37.8	37.8	67	27.8	2	6	270	0.00	30.104 
13:50	38.0	38.0	38.0	64	26.9	2	5	292	0.00	30.104 
13:55	38.3	38.3	38.3	66	28.0	1	3	270	0.00	30.104 
14:00	38.6	38.6	38.6	66	28.2	2	3	270	0.00	30.099 
14:05	38.8	38.8	38.8	66	28.4	2	4	248	0.00	30.099 
14:10	38.6	38.6	38.6	66	28.2	2	5	248	0.00	30.099 
14:15	38.9	38.9	38.9	67	28.9	2	4	292	0.00	30.095 
14:20	38.6	38.6	38.6	67	28.6	2	5	338	0.00	30.095 
14:25	38.8	38.8	38.8	66	28.4	2	4	270	0.00	30.095 
14:30	38.9	38.9	38.9	64	27.8	3	7	248	0.00	30.089 
14:35	39.2	39.2	39.2	61	26.9	2	5	248	0.00	30.089 
14:40	39.3	39.3	39.3	63	27.8	2	6	270	0.00	30.089 
14:45	39.5	39.5	39.5	65	28.7	2	5	248	0.00	30.091 
14:50	39.3	39.3	39.3	62	27.4	3	7	248	0.00	30.091 
14:55	39.2	39.2	39.2	62	27.3	3	9	248	0.00	30.091 
15:00	39.3	39.3	39.3	62	27.4	1	3	338	0.00	30.089 
15:05	39.3	39.3	39.3	59	26.2	3	7	270	0.00	30.089 
15:10	39.3	39.3	39.3	59	26.2	2	5	248	0.00	30.089 
15:15	39.5	39.5	39.5	59	26.4	3	6	270	0.00	30.089 
15:20	39.5	39.5	39.5	59	26.4	2	5	270	0.00	30.089 
15:25	39.8	39.8	39.8	59	26.7	2	5	270	0.00	30.089 
15:30	39.8	39.8	39.8	59	26.7	2	7	248	0.00	30.088 
15:35	40.2	40.2	40.2	59	27.0	3	9	248	0.00	30.088 
15:40	40.1	40.1	40.1	58	26.5	2	3	338	0.00	30.088 
15:45	40.2	40.2	40.2	57	26.2	2	6	270	0.00	30.088 
15:50	40.1	40.1	40.1	56	25.7	2	3	270	0.00	30.088 
15:55	40.1	40.1	40.1	55	25.2	2	6	270	0.00	30.088 
16:00	40.3	40.3	40.3	59	27.1	1	3	248	0.00	30.089 
16:05	40.5	40.5	40.5	58	26.9	2	5	248	0.00	30.089 
16:10	40.5	40.5	40.5	57	26.5	3	7	270	0.00	30.089 
16:15	40.3	40.3	40.3	58	26.7	3	9	248	0.00	30.092 
16:20	40.2	40.2	40.2	58	26.6	3	9	248	0.00	30.092 
16:25	40.2	40.2	40.2	57	26.2	2	5	248	0.00	30.092 
16:30	39.9	39.9	39.9	57	25.9	2	6	248	0.00	30.089 
16:35	39.8	39.8	39.8	56	25.4	2	5	248	0.00	30.089 
16:40	39.8	39.8	39.8	58	26.2	3	5	248	0.00	30.089 
16:45	39.5	39.5	39.5	57	25.5	2	4	248	0.00	30.089 
16:50	39.2	39.2	39.2	58	25.7	2	5	270	0.00	30.089 
16:55	38.9	38.9	38.9	58	25.4	1	5	248	0.00	30.089 
17:00	38.8	38.8	38.8	61	26.5	2	5	248	0.00	30.088 
17:05	38.5	38.5	38.5	63	27.0	2	6	248	0.00	30.088 
17:10	38.3	38.3	38.3	64	27.2	3	6	248	0.00	30.088 
17:15	38.0	38.0	38.0	65	27.3	2	4	248	0.00	30.090 
17:20	37.8	37.8	37.8	65	27.1	2	4	248	0.00	30.090 
17:25	37.5	37.5	37.5	66	27.2	1	4	248	0.00	30.090 
17:30	37.2	37.2	37.2	67	27.3	1	5	248	0.00	30.091 
17:35	37.0	37.0	37.0	67	27.1	1	3	225	0.00	30.091 
17:40	36.8	36.8	36.8	67	26.9	1	3	248	0.00	30.091 
17:45	36.5	36.5	36.5	67	26.6	1	4	248	0.00	30.091 
17:50	36.2	36.2	36.2	68	26.7	1	4	248	0.00	30.091 
17:55	36.0	36.0	36.0	68	26.5	1	4	248	0.00	30.091 
18:00	35.8	35.8	35.8	68	26.3	1	3	248	0.00	30.090 
18:05	35.5	35.5	35.5	69	26.4	1	3	248	0.00	30.090 
18:10	35.3	35.3	35.3	69	26.2	1	3	248	0.00	30.090 
18:15	35.2	35.2	35.2	69	26.1	1	3	248	0.00	30.090 
18:20	34.9	34.9	34.9	69	25.8	1	2	248	0.00	30.090 
18:25	34.6	34.6	34.6	71	26.2	1	3	248	0.00	30.090 
18:30	34.4	34.4	34.4	73	26.7	1	3	248	0.00	30.092 
18:35	34.3	34.3	34.3	75	27.2	1	3	248	0.00	30.092 
18:40	34.0	34.0	34.0	76	27.2	1	2	248	0.00	30.092 
18:45	33.8	33.8	33.8	76	27.1	1	4	248	0.00	30.089 
18:50	33.7	33.7	33.7	76	27.0	2	4	248	0.00	30.089 
18:55	33.7	33.7	33.7	76	27.0	2	4	248	0.00	30.089 
19:00	33.5	33.5	33.5	77	27.1	1	2	248	0.00	30.089 
19:05	33.2	33.2	33.2	77	26.8	1	3	248	0.00	30.089 
19:10	33.1	33.1	33.1	77	26.7	1	2	225	0.00	30.089 
19:15	32.9	32.9	32.9	77	26.5	1	3	248	0.00	30.095 
19:20	32.7	32.7	32.7	78	26.6	1	3	248	0.00	30.095 
19:25	32.5	32.5	32.5	78	26.4	1	2	248	0.00	30.095 
19:30	32.4	32.4	32.4	78	26.3	1	2	248	0.00	30.098 
19:35	32.1	32.1	32.1	79	26.3	0	1	248	0.00	30.098 
19:40	31.9	31.9	31.9	79	26.1	0	1	248	0.00	30.098 
19:45	31.8	31.8	31.8	79	26.0	0	1	248	0.00	30.093 
19:50	31.5	31.5	31.5	80	26.1	0	1	248	0.00	30.093 
19:55	31.3	31.3	31.3	81	26.2	0	1	248	0.00	30.093 
20:00	31.2	31.2	31.2	81	26.1	0	2	248	0.00	30.095 
20:05	31.0	31.0	31.0	81	25.9	1	2	248	0.00	30.095 
20:10	31.0	31.0	31.0	81	25.9	1	3	248	0.00	30.095 
20:15	31.2	31.2	31.2	81	26.1	1	4	248	0.00	30.083 
20:20	31.0	31.0	31.0	81	25.9	1	3	248	0.00	30.083 
20:25	31.0	31.0	31.0	81	25.9	0	2	248	0.00	30.083 
20:30	30.9	30.9	30.9	82	26.1	1	3	248	0.00	30.083 
20:35	30.7	30.7	30.7	83	26.2	2	4	248	0.00	30.083 
20:40	30.6	30.6	30.6	83	26.1	1	4	248	0.00	30.083 
20:45	30.4	30.4	30.4	84	26.2	1	3	248	0.00	30.072 
20:50	30.3	30.3	30.3	84	26.1	1	3	225	0.00	30.072 
20:55	30.1	30.1	30.1	85	26.1	1	3	225	0.00	30.072 
21:00	30.0	30.0	30.0	86	26.3	1	3	248	0.00	30.065 
21:05	29.8	29.8	29.8	86	26.1	2	4	248	0.00	30.065 
21:10	29.8	29.8	29.8	86	26.1	2	5	248	0.00	30.065 
21:15	29.7	29.7	29.7	86	26.0	2	4	248	0.00	30.063 
21:20	29.5	29.5	29.5	86	25.8	1	4	248	0.00	30.063 
21:25	29.5	29.5	29.5	86	25.8	2	4	248	0.00	30.063 
21:30	29.4	29.4	29.4	86	25.7	2	4	248	0.00	30.059 
21:35	29.3	29.3	29.3	87	25.9	2	4	248	0.00	30.059 
21:40	29.1	29.1	29.1	87	25.7	2	4	248	0.00	30.059 
21:45	29.0	24.6	29.0	87	25.6	4	11	248	0.00	30.063 
21:50	28.8	28.8	28.8	87	25.4	3	6	248	0.00	30.063 
21:55	28.7	28.7	28.7	87	25.3	3	9	248	0.00	30.063 
22:00	28.4	28.4	28.4	87	25.0	3	9	248	0.00	30.061 
22:05	28.1	23.6	28.1	86	24.5	4	9	248	0.00	30.061 
22:10	27.6	23.0	27.6	87	24.2	4	10	248	0.00	30.061 
22:15	27.5	27.5	27.5	88	24.4	2	6	248	0.00	30.051 
22:20	27.2	27.2	27.2	88	24.1	2	6	248	0.00	30.051 
22:25	27.2	27.2	27.2	88	24.1	1	5	248	0.00	30.051 
22:30	26.9	26.9	26.9	88	23.8	1	3	248	0.00	30.042 
22:35	26.7	26.7	26.7	88	23.6	1	3	248	0.00	30.042 
22:40	26.6	26.6	26.6	89	23.8	1	4	248	0.00	30.042 
22:45	26.6	26.6	26.6	88	23.5	1	3	248	0.00	30.033 
22:50	26.3	26.3	26.3	88	23.2	1	2	248	0.00	30.033 
22:55	26.1	26.1	26.1	88	23.0	0	3	225	0.00	30.033 
23:00	26.0	26.0	26.0	88	22.9	1	3	248	0.00	30.020 
23:05	26.0	26.0	26.0	89	23.2	1	3	248	0.00	30.020 
23:10	26.0	26.0	26.0	89	23.2	1	5	248	0.00	30.020 
23:15	26.0	26.0	26.0	89	23.2	2	4	248	0.00	30.016 
23:20	26.0	26.0	26.0	89	23.2	2	4	248	0.00	30.016 
23:25	26.0	26.0	26.0	89	23.2	2	4	248	0.00	30.016 
23:30	26.0	26.0	26.0	89	23.2	1	3	248	0.00	30.009 
23:35	26.0	26.0	26.0	89	23.2	2	4	248	0.00	30.009 
23:40	25.8	25.8	25.8	89	23.0	2	4	248	0.00	30.009 
23:45	25.8	25.8	25.8	89	23.0	2	5	248	0.00	30.002 
23:50	25.8	25.8	25.8	89	23.0	2	4	248	0.00	30.002 
23:55	25.7	25.7	25.7	89	22.9	1	4	248	0.00	30.002 

CoCoRaHS
IN-AL-39
A2 Web Hosting
Creative Commons License
GoDaddy
Look for:

loaded 2017-10-19 12:13:25 • last modified 2010-11-18 10:43:29
Privacy PolicyDisclaimer
• wx.awcolley.com is powered by PmWiki v.2002016 •
• all content (unless otherwise noted) © 2017 A W Colley